Disclaimer

Please do not use the information listed here in-flight or in-navigation, as they are not provided to us by the airports but are provided by volunteers, so they might be outdated.

Search


Regions


Airport information page

Radio informations:
Tower (TWR) - 122.7 MHz
RDO - 6577 MHz
Ground (GND) - 121.9 MHz
Automatic Terminal Information Service (ATIS) - 338.0 MHz

Airport informations:
Latitude: 09° 07' 57.37" N
Longitude: 099° 08' 08.11" E
Elevation: 20 feet - 6 meters
Operating hours: Remarks
Operating agency: Military-civil joint use airport
Timezone: UTC+7
Fuel: Jet A1, without icing nhibitor.

JP-8, SemiKeroscene MIL Spec T-83133, without icing inhibitor

100/130 MIL Spec, low lead, aviation gasoline (BLUE)

Runway information:
04/22 - 9843 x 148 feet< - >3000 x 45 meters

Recent METARs:
VTSB 122200Z 00000KT 5000 BR FEW020 23/23 Q1008

Airport on the map: